sensor_id;sensor_type;location;lat;lon;timestamp;pressure;altitude;pressure_sealevel;temperature;humidity
31538;BME280;18147;51.952;6.146;2023-04-29T00:01:06;101305.31;;;10.74;100.00
31538;BME280;18147;51.952;6.146;2023-04-29T00:03:31;101308.53;;;10.65;100.00
31538;BME280;18147;51.952;6.146;2023-04-29T00:05:58;101314.00;;;10.78;100.00
31538;BME280;18147;51.952;6.146;2023-04-29T00:08:23;101309.88;;;10.72;100.00
31538;BME280;18147;51.952;6.146;2023-04-29T00:10:49;101304.56;;;10.72;100.00
31538;BME280;18147;51.952;6.146;2023-04-29T00:13:15;101320.28;;;10.77;100.00
31538;BME280;18147;51.952;6.146;2023-04-29T00:15:42;101314.72;;;10.66;100.00
31538;BME280;18147;51.952;6.146;2023-04-29T00:18:08;101316.78;;;10.76;100.00
31538;BME280;18147;51.952;6.146;2023-04-29T00:20:34;101314.53;;;10.84;100.00
31538;BME280;18147;51.952;6.146;2023-04-29T00:23:00;101327.78;;;10.70;100.00
31538;BME280;18147;51.952;6.146;2023-04-29T00:25:26;101320.56;;;10.72;100.00
31538;BME280;18147;51.952;6.146;2023-04-29T00:27:51;101330.47;;;10.70;100.00
31538;BME280;18147;51.952;6.146;2023-04-29T00:30:17;101333.97;;;10.55;100.00
31538;BME280;18147;51.952;6.146;2023-04-29T00:32:43;101334.84;;;10.55;100.00
31538;BME280;18147;51.952;6.146;2023-04-29T00:35:09;101335.69;;;10.72;100.00
31538;BME280;18147;51.952;6.146;2023-04-29T00:37:35;101344.06;;;10.66;100.00
31538;BME280;18147;51.952;6.146;2023-04-29T00:40:00;101341.53;;;10.62;100.00
31538;BME280;18147;51.952;6.146;2023-04-29T00:42:27;101342.25;;;10.66;100.00
31538;BME280;18147;51.952;6.146;2023-04-29T00:44:53;101348.00;;;10.58;100.00
31538;BME280;18147;51.952;6.146;2023-04-29T00:47:19;101342.91;;;10.54;100.00
31538;BME280;18147;51.952;6.146;2023-04-29T00:49:44;101356.53;;;10.65;100.00
31538;BME280;18147;51.952;6.146;2023-04-29T00:52:10;101351.72;;;10.72;100.00
31538;BME280;18147;51.952;6.146;2023-04-29T00:54:38;101353.16;;;10.77;100.00
31538;BME280;18147;51.952;6.146;2023-04-29T00:57:05;101356.00;;;10.74;100.00
31538;BME280;18147;51.952;6.146;2023-04-29T00:59:32;101352.81;;;10.68;100.00
31538;BME280;18147;51.952;6.146;2023-04-29T01:02:00;101359.25;;;10.63;100.00
31538;BME280;18147;51.952;6.146;2023-04-29T01:04:26;101367.59;;;10.57;100.00
31538;BME280;18147;51.952;6.146;2023-04-29T01:07:17;101369.16;;;10.61;100.00
31538;BME280;18147;51.952;6.146;2023-04-29T01:10:03;101373.44;;;10.48;100.00
31538;BME280;18147;51.952;6.146;2023-04-29T01:12:54;101373.13;;;10.54;100.00
31538;BME280;18147;51.952;6.146;2023-04-29T01:15:33;101372.94;;;10.57;100.00
31538;BME280;18147;51.952;6.146;2023-04-29T01:18:07;101377.31;;;10.58;100.00
31538;BME280;18147;51.952;6.146;2023-04-29T01:20:36;101379.56;;;10.50;100.00
31538;BME280;18147;51.952;6.146;2023-04-29T01:23:03;101385.31;;;10.58;100.00
31538;BME280;18147;51.952;6.146;2023-04-29T01:25:29;101387.13;;;10.58;100.00
31538;BME280;18147;51.952;6.146;2023-04-29T01:28:42;101385.63;;;10.70;100.00
31538;BME280;18147;51.952;6.146;2023-04-29T01:31:37;101386.47;;;10.70;100.00
31538;BME280;18147;51.952;6.146;2023-04-29T01:34:13;101397.63;;;10.61;100.00
31538;BME280;18147;51.952;6.146;2023-04-29T01:36:56;101394.13;;;10.60;100.00
31538;BME280;18147;51.952;6.146;2023-04-29T01:45:09;101404.19;;;10.55;100.00
31538;BME280;18147;51.952;6.146;2023-04-29T01:47:36;101406.63;;;10.43;100.00
31538;BME280;18147;51.952;6.146;2023-04-29T01:50:02;101414.38;;;10.47;100.00
31538;BME280;18147;51.952;6.146;2023-04-29T01:52:28;101414.75;;;10.57;100.00
31538;BME280;18147;51.952;6.146;2023-04-29T01:54:55;101408.03;;;10.50;100.00
31538;BME280;18147;51.952;6.146;2023-04-29T01:57:22;101409.66;;;10.52;100.00
31538;BME280;18147;51.952;6.146;2023-04-29T02:00:16;101402.38;;;10.56;100.00
31538;BME280;18147;51.952;6.146;2023-04-29T02:02:48;101411.84;;;10.61;100.00
31538;BME280;18147;51.952;6.146;2023-04-29T02:05:35;101406.22;;;10.50;100.00
31538;BME280;18147;51.952;6.146;2023-04-29T02:08:01;101411.81;;;10.46;100.00
31538;BME280;18147;51.952;6.146;2023-04-29T02:10:27;101416.66;;;10.55;100.00
31538;BME280;18147;51.952;6.146;2023-04-29T02:13:03;101420.41;;;10.51;100.00
31538;BME280;18147;51.952;6.146;2023-04-29T02:15:29;101415.19;;;10.49;100.00
31538;BME280;18147;51.952;6.146;2023-04-29T02:17:55;101422.97;;;10.36;100.00
31538;BME280;18147;51.952;6.146;2023-04-29T02:20:20;101421.63;;;10.45;100.00
31538;BME280;18147;51.952;6.146;2023-04-29T02:22:46;101423.06;;;10.35;100.00
31538;BME280;18147;51.952;6.146;2023-04-29T02:25:11;101425.53;;;10.38;100.00
31538;BME280;18147;51.952;6.146;2023-04-29T02:27:37;101435.66;;;10.31;100.00
31538;BME280;18147;51.952;6.146;2023-04-29T02:30:05;101436.69;;;10.29;100.00
31538;BME280;18147;51.952;6.146;2023-04-29T02:32:31;101437.75;;;10.42;100.00
31538;BME280;18147;51.952;6.146;2023-04-29T02:34:57;101441.91;;;10.48;100.00
31538;BME280;18147;51.952;6.146;2023-04-29T02:37:22;101438.63;;;10.43;100.00
31538;BME280;18147;51.952;6.146;2023-04-29T02:39:48;101440.34;;;10.44;100.00
31538;BME280;18147;51.952;6.146;2023-04-29T02:42:14;101441.47;;;10.40;100.00
31538;BME280;18147;51.952;6.146;2023-04-29T02:44:39;101448.34;;;10.44;100.00
31538;BME280;18147;51.952;6.146;2023-04-29T02:47:06;101451.56;;;10.50;100.00
31538;BME280;18147;51.952;6.146;2023-04-29T02:49:31;101461.75;;;10.59;100.00
31538;BME280;18147;51.952;6.146;2023-04-29T02:51:57;101460.13;;;10.40;100.00
31538;BME280;18147;51.952;6.146;2023-04-29T02:54:23;101462.84;;;10.38;100.00
31538;BME280;18147;51.952;6.146;2023-04-29T02:56:48;101465.13;;;10.46;100.00
31538;BME280;18147;51.952;6.146;2023-04-29T02:59:14;101457.50;;;10.55;100.00
31538;BME280;18147;51.952;6.146;2023-04-29T03:01:40;101467.38;;;10.53;100.00
31538;BME280;18147;51.952;6.146;2023-04-29T03:04:06;101468.41;;;10.51;100.00
31538;BME280;18147;51.952;6.146;2023-04-29T03:06:31;101474.47;;;10.54;100.00
31538;BME280;18147;51.952;6.146;2023-04-29T03:08:57;101474.38;;;10.56;100.00
31538;BME280;18147;51.952;6.146;2023-04-29T03:11:23;101466.19;;;10.59;100.00
31538;BME280;18147;51.952;6.146;2023-04-29T03:13:49;101470.22;;;10.50;100.00
31538;BME280;18147;51.952;6.146;2023-04-29T03:16:15;101477.56;;;10.29;100.00
31538;BME280;18147;51.952;6.146;2023-04-29T03:18:43;101475.25;;;10.39;100.00
31538;BME280;18147;51.952;6.146;2023-04-29T03:21:09;101472.66;;;10.37;100.00
31538;BME280;18147;51.952;6.146;2023-04-29T03:23:35;101477.28;;;10.34;100.00
31538;BME280;18147;51.952;6.146;2023-04-29T03:26:03;101477.78;;;10.25;100.00
31538;BME280;18147;51.952;6.146;2023-04-29T03:28:28;101479.09;;;10.33;100.00
31538;BME280;18147;51.952;6.146;2023-04-29T03:30:54;101487.72;;;10.38;100.00
31538;BME280;18147;51.952;6.146;2023-04-29T03:33:21;101487.31;;;10.29;100.00
31538;BME280;18147;51.952;6.146;2023-04-29T03:35:47;101480.38;;;10.26;100.00
31538;BME280;18147;51.952;6.146;2023-04-29T03:38:34;101491.88;;;10.09;100.00
31538;BME280;18147;51.952;6.146;2023-04-29T03:41:00;101493.91;;;10.22;100.00
31538;BME280;18147;51.952;6.146;2023-04-29T03:43:26;101486.63;;;10.25;100.00
31538;BME280;18147;51.952;6.146;2023-04-29T03:45:51;101490.16;;;10.26;100.00
31538;BME280;18147;51.952;6.146;2023-04-29T03:48:20;101486.63;;;10.25;100.00
31538;BME280;18147;51.952;6.146;2023-04-29T03:50:45;101482.88;;;10.29;100.00
31538;BME280;18147;51.952;6.146;2023-04-29T03:53:11;101498.44;;;10.20;100.00
31538;BME280;18147;51.952;6.146;2023-04-29T03:55:38;101495.41;;;10.27;100.00
31538;BME280;18147;51.952;6.146;2023-04-29T03:58:04;101501.78;;;10.25;100.00
31538;BME280;18147;51.952;6.146;2023-04-29T04:00:30;101506.25;;;10.24;100.00
31538;BME280;18147;51.952;6.146;2023-04-29T04:02:58;101503.59;;;10.23;100.00
31538;BME280;18147;51.952;6.146;2023-04-29T04:05:23;101519.41;;;10.27;100.00
31538;BME280;18147;51.952;6.146;2023-04-29T04:07:54;101509.69;;;10.26;100.00
31538;BME280;18147;51.952;6.146;2023-04-29T04:10:29;101515.63;;;10.31;100.00
31538;BME280;18147;51.952;6.146;2023-04-29T04:12:56;101523.41;;;10.36;100.00
31538;BME280;18147;51.952;6.146;2023-04-29T04:15:21;101528.56;;;10.39;100.00
31538;BME280;18147;51.952;6.146;2023-04-29T04:17:47;101529.91;;;10.30;100.00
31538;BME280;18147;51.952;6.146;2023-04-29T04:20:12;101529.91;;;10.30;100.00
31538;BME280;18147;51.952;6.146;2023-04-29T04:22:38;101538.16;;;10.26;100.00
31538;BME280;18147;51.952;6.146;2023-04-29T04:25:25;101540.91;;;10.24;100.00
31538;BME280;18147;51.952;6.146;2023-04-29T04:27:54;101540.63;;;10.29;100.00
31538;BME280;18147;51.952;6.146;2023-04-29T04:30:30;101545.44;;;10.03;100.00
31538;BME280;18147;51.952;6.146;2023-04-29T04:32:55;101553.06;;;10.11;100.00
31538;BME280;18147;51.952;6.146;2023-04-29T04:35:21;101555.78;;;9.92;100.00
31538;BME280;18147;51.952;6.146;2023-04-29T04:37:47;101562.47;;;10.18;100.00
31538;BME280;18147;51.952;6.146;2023-04-29T04:40:12;101561.56;;;10.19;100.00
31538;BME280;18147;51.952;6.146;2023-04-29T04:42:58;101560.22;;;10.10;100.00
31538;BME280;18147;51.952;6.146;2023-04-29T04:45:23;101560.84;;;10.16;100.00
31538;BME280;18147;51.952;6.146;2023-04-29T04:47:50;101565.66;;;10.26;100.00
31538;BME280;18147;51.952;6.146;2023-04-29T04:50:28;101564.81;;;10.26;100.00
31538;BME280;18147;51.952;6.146;2023-04-29T04:52:54;101567.53;;;10.42;100.00
31538;BME280;18147;51.952;6.146;2023-04-29T04:55:43;101573.75;;;10.42;100.00
31538;BME280;18147;51.952;6.146;2023-04-29T04:58:09;101576.41;;;10.42;100.00
31538;BME280;18147;51.952;6.146;2023-04-29T05:00:35;101575.63;;;10.40;100.00
31538;BME280;18147;51.952;6.146;2023-04-29T05:03:01;101573.56;;;10.28;100.00
31538;BME280;18147;51.952;6.146;2023-04-29T05:05:27;101582.81;;;10.38;100.00
31538;BME280;18147;51.952;6.146;2023-04-29T05:07:53;101583.53;;;10.42;100.00
31538;BME280;18147;51.952;6.146;2023-04-29T05:10:25;101585.84;;;10.49;100.00
31538;BME280;18147;51.952;6.146;2023-04-29T05:12:52;101591.41;;;10.45;100.00
31538;BME280;18147;51.952;6.146;2023-04-29T05:15:18;101592.88;;;10.50;100.00
31538;BME280;18147;51.952;6.146;2023-04-29T05:17:45;101594.75;;;10.48;100.00
31538;BME280;18147;51.952;6.146;2023-04-29T05:20:11;101594.97;;;10.44;100.00
31538;BME280;18147;51.952;6.146;2023-04-29T05:22:37;101606.59;;;10.43;100.00
31538;BME280;18147;51.952;6.146;2023-04-29T05:25:03;101607.63;;;10.57;100.00
31538;BME280;18147;51.952;6.146;2023-04-29T05:27:30;101604.94;;;10.57;100.00
31538;BME280;18147;51.952;6.146;2023-04-29T05:29:56;101609.75;;;10.51;100.00
31538;BME280;18147;51.952;6.146;2023-04-29T05:32:22;101612.19;;;10.55;100.00
31538;BME280;18147;51.952;6.146;2023-04-29T05:34:47;101623.47;;;10.60;100.00
31538;BME280;18147;51.952;6.146;2023-04-29T05:37:13;101619.16;;;10.58;100.00
31538;BME280;18147;51.952;6.146;2023-04-29T05:39:57;101620.19;;;10.55;100.00
31538;BME280;18147;51.952;6.146;2023-04-29T05:42:22;101627.56;;;10.50;100.00
31538;BME280;18147;51.952;6.146;2023-04-29T05:44:52;101622.00;;;10.55;100.00
31538;BME280;18147;51.952;6.146;2023-04-29T05:47:17;101626.91;;;10.62;100.00
31538;BME280;18147;51.952;6.146;2023-04-29T05:49:44;101626.28;;;10.57;100.00
31538;BME280;18147;51.952;6.146;2023-04-29T05:52:09;101633.34;;;10.58;100.00
31538;BME280;18147;51.952;6.146;2023-04-29T05:54:40;101635.47;;;10.69;100.00
31538;BME280;18147;51.952;6.146;2023-04-29T05:57:06;101647.22;;;10.48;100.00
31538;BME280;18147;51.952;6.146;2023-04-29T05:59:32;101645.34;;;10.67;100.00
31538;BME280;18147;51.952;6.146;2023-04-29T06:02:01;101648.97;;;10.83;100.00
31538;BME280;18147;51.952;6.146;2023-04-29T06:04:27;101647.31;;;10.81;100.00
31538;BME280;18147;51.952;6.146;2023-04-29T06:07:13;101640.72;;;11.05;100.00
31538;BME280;18147;51.952;6.146;2023-04-29T06:09:57;101648.31;;;11.13;100.00
31538;BME280;18147;51.952;6.146;2023-04-29T06:12:24;101654.34;;;10.99;100.00
31538;BME280;18147;51.952;6.146;2023-04-29T06:14:50;101652.81;;;10.95;100.00
31538;BME280;18147;51.952;6.146;2023-04-29T06:17:15;101661.91;;;10.91;100.00
31538;BME280;18147;51.952;6.146;2023-04-29T06:19:41;101670.06;;;10.88;100.00
31538;BME280;18147;51.952;6.146;2023-04-29T06:22:08;101661.75;;;10.94;100.00
31538;BME280;18147;51.952;6.146;2023-04-29T06:24:35;101657.19;;;10.79;100.00
31538;BME280;18147;51.952;6.146;2023-04-29T06:27:01;101672.50;;;10.93;100.00
31538;BME280;18147;51.952;6.146;2023-04-29T06:29:28;101678.88;;;10.90;100.00
31538;BME280;18147;51.952;6.146;2023-04-29T06:31:54;101680.84;;;10.86;100.00
31538;BME280;18147;51.952;6.146;2023-04-29T06:34:21;101691.59;;;10.85;100.00
31538;BME280;18147;51.952;6.146;2023-04-29T06:37:10;101700.28;;;10.88;100.00
31538;BME280;18147;51.952;6.146;2023-04-29T06:39:53;101701.22;;;10.70;100.00
31538;BME280;18147;51.952;6.146;2023-04-29T06:42:39;101699.88;;;10.79;100.00
31538;BME280;18147;51.952;6.146;2023-04-29T06:45:46;101699.19;;;10.93;100.00
31538;BME280;18147;51.952;6.146;2023-04-29T06:48:19;101703.34;;;10.98;100.00
31538;BME280;18147;51.952;6.146;2023-04-29T06:50:53;101712.72;;;10.53;100.00
31538;BME280;18147;51.952;6.146;2023-04-29T06:53:20;101709.16;;;10.89;100.00
31538;BME280;18147;51.952;6.146;2023-04-29T06:55:46;101708.88;;;10.95;100.00
31538;BME280;18147;51.952;6.146;2023-04-29T06:58:15;101706.63;;;11.03;100.00
31538;BME280;18147;51.952;6.146;2023-04-29T07:00:46;101714.88;;;10.81;100.00
31538;BME280;18147;51.952;6.146;2023-04-29T07:03:13;101724.94;;;11.11;100.00
31538;BME280;18147;51.952;6.146;2023-04-29T07:05:40;101718.34;;;11.01;100.00
31538;BME280;18147;51.952;6.146;2023-04-29T07:08:08;101731.94;;;11.31;100.00
31538;BME280;18147;51.952;6.146;2023-04-29T07:10:34;101730.41;;;11.43;100.00
31538;BME280;18147;51.952;6.146;2023-04-29T07:13:00;101738.19;;;11.47;100.00
31538;BME280;18147;51.952;6.146;2023-04-29T07:15:26;101740.09;;;11.45;100.00
31538;BME280;18147;51.952;6.146;2023-04-29T07:17:52;101735.13;;;11.03;100.00
31538;BME280;18147;51.952;6.146;2023-04-29T07:20:18;101748.81;;;11.31;100.00
31538;BME280;18147;51.952;6.146;2023-04-29T07:22:44;101746.63;;;11.73;100.00
31538;BME280;18147;51.952;6.146;2023-04-29T07:25:11;101749.34;;;11.55;100.00
31538;BME280;18147;51.952;6.146;2023-04-29T07:27:37;101754.09;;;11.83;100.00
31538;BME280;18147;51.952;6.146;2023-04-29T07:30:04;101751.25;;;11.86;100.00
31538;BME280;18147;51.952;6.146;2023-04-29T07:32:30;101756.97;;;11.79;100.00
31538;BME280;18147;51.952;6.146;2023-04-29T07:35:00;101765.03;;;11.61;100.00
31538;BME280;18147;51.952;6.146;2023-04-29T07:37:25;101767.19;;;11.88;100.00
31538;BME280;18147;51.952;6.146;2023-04-29T07:39:51;101768.88;;;11.90;100.00
31538;BME280;18147;51.952;6.146;2023-04-29T07:42:17;101769.50;;;12.27;100.00
31538;BME280;18147;51.952;6.146;2023-04-29T07:44:42;101765.72;;;12.31;100.00
31538;BME280;18147;51.952;6.146;2023-04-29T07:47:13;101762.00;;;12.34;100.00
31538;BME280;18147;51.952;6.146;2023-04-29T07:49:39;101781.06;;;12.28;100.00
31538;BME280;18147;51.952;6.146;2023-04-29T07:52:06;101777.97;;;12.35;100.00
31538;BME280;18147;51.952;6.146;2023-04-29T07:54:34;101772.00;;;12.62;100.00
31538;BME280;18147;51.952;6.146;2023-04-29T07:57:01;101779.69;;;12.52;100.00
31538;BME280;18147;51.952;6.146;2023-04-29T07:59:28;101780.81;;;12.64;100.00
31538;BME280;18147;51.952;6.146;2023-04-29T08:01:54;101790.19;;;12.87;100.00
31538;BME280;18147;51.952;6.146;2023-04-29T08:04:20;101796.00;;;12.63;100.00
31538;BME280;18147;51.952;6.146;2023-04-29T08:06:49;101793.56;;;12.75;100.00
31538;BME280;18147;51.952;6.146;2023-04-29T08:09:15;101797.25;;;13.04;100.00
31538;BME280;18147;51.952;6.146;2023-04-29T08:11:42;101801.88;;;12.86;100.00
31538;BME280;18147;51.952;6.146;2023-04-29T08:14:11;101799.84;;;13.05;100.00
31538;BME280;18147;51.952;6.146;2023-04-29T08:16:37;101811.34;;;13.67;100.00
31538;BME280;18147;51.952;6.146;2023-04-29T08:19:03;101801.31;;;13.71;100.00
31538;BME280;18147;51.952;6.146;2023-04-29T08:21:29;101803.19;;;13.69;100.00
31538;BME280;18147;51.952;6.146;2023-04-29T08:23:56;101805.84;;;13.55;100.00
31538;BME280;18147;51.952;6.146;2023-04-29T08:26:22;101811.44;;;13.94;100.00
31538;BME280;18147;51.952;6.146;2023-04-29T08:28:48;101810.41;;;13.83;100.00
31538;BME280;18147;51.952;6.146;2023-04-29T08:31:17;101819.91;;;14.03;100.00
31538;BME280;18147;51.952;6.146;2023-04-29T08:33:43;101821.25;;;13.21;100.00
31538;BME280;18147;51.952;6.146;2023-04-29T08:36:09;101823.63;;;13.86;100.00
31538;BME280;18147;51.952;6.146;2023-04-29T08:38:35;101818.22;;;13.11;100.00
31538;BME280;18147;51.952;6.146;2023-04-29T08:41:00;101819.66;;;13.63;100.00
31538;BME280;18147;51.952;6.146;2023-04-29T08:43:26;101816.44;;;14.15;100.00
31538;BME280;18147;51.952;6.146;2023-04-29T08:45:52;101810.78;;;14.62;100.00
31538;BME280;18147;51.952;6.146;2023-04-29T08:48:19;101814.69;;;14.71;98.68
31538;BME280;18147;51.952;6.146;2023-04-29T08:50:45;101826.91;;;14.48;100.00
31538;BME280;18147;51.952;6.146;2023-04-29T08:53:13;101822.59;;;14.87;100.00
31538;BME280;18147;51.952;6.146;2023-04-29T08:55:46;101828.31;;;13.82;100.00
31538;BME280;18147;51.952;6.146;2023-04-29T08:58:13;101828.03;;;14.58;100.00
31538;BME280;18147;51.952;6.146;2023-04-29T09:00:39;101831.00;;;14.25;100.00
31538;BME280;18147;51.952;6.146;2023-04-29T09:04:00;101832.63;;;14.42;100.00
31538;BME280;18147;51.952;6.146;2023-04-29T09:06:17;101842.97;;;14.19;100.00
31538;BME280;18147;51.952;6.146;2023-04-29T09:08:43;101834.50;;;14.83;100.00
31538;BME280;18147;51.952;6.146;2023-04-29T09:11:09;101833.81;;;14.79;100.00
31538;BME280;18147;51.952;6.146;2023-04-29T09:13:36;101829.56;;;14.89;94.92
31538;BME280;18147;51.952;6.146;2023-04-29T09:16:02;101839.53;;;14.03;100.00
31538;BME280;18147;51.952;6.146;2023-04-29T09:18:47;101833.59;;;14.96;100.00
31538;BME280;18147;51.952;6.146;2023-04-29T09:23:45;101837.69;;;15.02;97.53
31538;BME280;18147;51.952;6.146;2023-04-29T09:26:11;101837.72;;;15.15;93.21
31538;BME280;18147;51.952;6.146;2023-04-29T09:28:37;101828.00;;;15.26;98.57
31538;BME280;18147;51.952;6.146;2023-04-29T09:31:06;101844.28;;;14.69;92.54
31538;BME280;18147;51.952;6.146;2023-04-29T09:33:54;101856.25;;;14.92;97.14
31538;BME280;18147;51.952;6.146;2023-04-29T09:36:48;101863.47;;;14.20;96.89
31538;BME280;18147;51.952;6.146;2023-04-29T09:39:19;101860.38;;;13.84;99.70
31538;BME280;18147;51.952;6.146;2023-04-29T09:44:27;101872.00;;;13.98;100.00
31538;BME280;18147;51.952;6.146;2023-04-29T09:46:54;101874.19;;;13.92;100.00
31538;BME280;18147;51.952;6.146;2023-04-29T09:49:26;101874.53;;;13.71;100.00
31538;BME280;18147;51.952;6.146;2023-04-29T09:54:21;101874.75;;;13.53;100.00
31538;BME280;18147;51.952;6.146;2023-04-29T09:56:49;101884.75;;;14.09;100.00
31538;BME280;18147;51.952;6.146;2023-04-29T09:59:17;101869.66;;;15.19;97.31
31538;BME280;18147;51.952;6.146;2023-04-29T10:01:46;101883.66;;;13.83;98.15
31538;BME280;18147;51.952;6.146;2023-04-29T10:04:15;101894.50;;;14.10;100.00
31538;BME280;18147;51.952;6.146;2023-04-29T10:06:41;101880.81;;;14.43;100.00
31538;BME280;18147;51.952;6.146;2023-04-29T10:09:13;101870.41;;;14.67;98.15
31538;BME280;18147;51.952;6.146;2023-04-29T10:11:44;101888.88;;;14.43;100.00
31538;BME280;18147;51.952;6.146;2023-04-29T10:14:30;101863.69;;;15.28;95.08
31538;BME280;18147;51.952;6.146;2023-04-29T10:19:33;101872.31;;;15.07;98.58
31538;BME280;18147;51.952;6.146;2023-04-29T10:22:10;101876.75;;;14.93;90.85
31538;BME280;18147;51.952;6.146;2023-04-29T10:24:38;101876.16;;;15.02;92.16
31538;BME280;18147;51.952;6.146;2023-04-29T10:27:09;101871.25;;;15.89;92.56
31538;BME280;18147;51.952;6.146;2023-04-29T10:29:37;101879.34;;;14.95;90.36
31538;BME280;18147;51.952;6.146;2023-04-29T10:32:06;101882.38;;;14.62;91.25
31538;BME280;18147;51.952;6.146;2023-04-29T10:34:37;101881.53;;;15.29;90.61
31538;BME280;18147;51.952;6.146;2023-04-29T10:37:08;101869.44;;;15.76;87.33
31538;BME280;18147;51.952;6.146;2023-04-29T10:40:00;101878.66;;;15.45;84.67
31538;BME280;18147;51.952;6.146;2023-04-29T10:42:32;101882.84;;;15.10;87.04
31538;BME280;18147;51.952;6.146;2023-04-29T10:53:19;101877.09;;;15.55;79.24
31538;BME280;18147;51.952;6.146;2023-04-29T10:55:53;101877.09;;;15.83;80.52
31538;BME280;18147;51.952;6.146;2023-04-29T10:58:41;101875.66;;;15.90;79.94
31538;BME280;18147;51.952;6.146;2023-04-29T11:01:10;101873.31;;;15.85;86.70
31538;BME280;18147;51.952;6.146;2023-04-29T11:03:56;101881.84;;;14.98;85.46
31538;BME280;18147;51.952;6.146;2023-04-29T11:06:52;101888.31;;;15.35;83.96
31538;BME280;18147;51.952;6.146;2023-04-29T11:09:26;101878.28;;;16.04;85.07
31538;BME280;18147;51.952;6.146;2023-04-29T11:14:41;101881.38;;;15.72;85.53
31538;BME280;18147;51.952;6.146;2023-04-29T11:17:15;101879.00;;;15.68;83.67
31538;BME280;18147;51.952;6.146;2023-04-29T11:27:33;101885.16;;;16.08;81.83
31538;BME280;18147;51.952;6.146;2023-04-29T11:30:01;101878.91;;;15.95;76.26
31538;BME280;18147;51.952;6.146;2023-04-29T11:32:31;101878.91;;;16.33;81.30
31538;BME280;18147;51.952;6.146;2023-04-29T11:35:08;101882.34;;;16.48;75.57
31538;BME280;18147;51.952;6.146;2023-04-29T11:37:34;101886.84;;;15.96;74.39
31538;BME280;18147;51.952;6.146;2023-04-29T11:40:01;101879.53;;;16.49;76.76
31538;BME280;18147;51.952;6.146;2023-04-29T11:42:28;101881.84;;;17.40;72.79
31538;BME280;18147;51.952;6.146;2023-04-29T11:44:54;101869.09;;;18.24;69.58
31538;BME280;18147;51.952;6.146;2023-04-29T11:47:26;101879.06;;;16.81;73.69
31538;BME280;18147;51.952;6.146;2023-04-29T11:49:52;101878.13;;;17.89;71.20
31538;BME280;18147;51.952;6.146;2023-04-29T11:52:19;101875.50;;;17.76;70.61
31538;BME280;18147;51.952;6.146;2023-04-29T11:54:46;101879.81;;;17.79;68.38
31538;BME280;18147;51.952;6.146;2023-04-29T11:57:11;101885.47;;;17.28;69.43
31538;BME280;18147;51.952;6.146;2023-04-29T11:59:37;101876.66;;;17.96;66.09
31538;BME280;18147;51.952;6.146;2023-04-29T12:02:05;101892.13;;;17.11;66.94
31538;BME280;18147;51.952;6.146;2023-04-29T12:04:31;101888.00;;;16.81;67.76
31538;BME280;18147;51.952;6.146;2023-04-29T12:06:56;101903.31;;;16.55;72.73
31538;BME280;18147;51.952;6.146;2023-04-29T12:09:23;101892.03;;;16.25;69.16
31538;BME280;18147;51.952;6.146;2023-04-29T12:11:49;101897.81;;;16.70;71.82
31538;BME280;18147;51.952;6.146;2023-04-29T12:14:15;101896.03;;;17.07;70.71
31538;BME280;18147;51.952;6.146;2023-04-29T12:16:41;101887.16;;;16.55;71.09
31538;BME280;18147;51.952;6.146;2023-04-29T12:19:07;101888.22;;;17.63;71.91
31538;BME280;18147;51.952;6.146;2023-04-29T12:21:34;101886.06;;;18.48;67.29
31538;BME280;18147;51.952;6.146;2023-04-29T12:24:01;101880.63;;;18.82;62.93
31538;BME280;18147;51.952;6.146;2023-04-29T12:26:28;101881.13;;;18.31;62.66
31538;BME280;18147;51.952;6.146;2023-04-29T12:28:56;101885.06;;;18.72;63.48
31538;BME280;18147;51.952;6.146;2023-04-29T12:31:22;101888.63;;;18.72;65.78
31538;BME280;18147;51.952;6.146;2023-04-29T12:33:48;101893.84;;;17.12;66.89
31538;BME280;18147;51.952;6.146;2023-04-29T12:36:17;101898.59;;;17.08;67.71
31538;BME280;18147;51.952;6.146;2023-04-29T12:38:43;101887.16;;;17.18;68.75
31538;BME280;18147;51.952;6.146;2023-04-29T12:41:09;101881.00;;;18.66;62.55
31538;BME280;18147;51.952;6.146;2023-04-29T12:43:36;101878.22;;;18.79;59.45
31538;BME280;18147;51.952;6.146;2023-04-29T12:46:09;101883.72;;;17.75;63.05
31538;BME280;18147;51.952;6.146;2023-04-29T12:48:37;101884.91;;;18.17;64.28
31538;BME280;18147;51.952;6.146;2023-04-29T12:51:10;101886.78;;;18.28;61.82
31538;BME280;18147;51.952;6.146;2023-04-29T12:53:36;101888.88;;;18.35;62.81
31538;BME280;18147;51.952;6.146;2023-04-29T12:56:02;101879.91;;;18.46;65.42
31538;BME280;18147;51.952;6.146;2023-04-29T12:58:28;101877.84;;;18.38;65.62
31538;BME280;18147;51.952;6.146;2023-04-29T13:00:54;101881.50;;;18.49;64.02
31538;BME280;18147;51.952;6.146;2023-04-29T13:03:20;101875.00;;;18.29;61.58
31538;BME280;18147;51.952;6.146;2023-04-29T13:05:46;101876.31;;;18.12;60.98
31538;BME280;18147;51.952;6.146;2023-04-29T13:08:15;101886.91;;;18.37;64.10
31538;BME280;18147;51.952;6.146;2023-04-29T13:10:42;101882.91;;;17.85;58.55
31538;BME280;18147;51.952;6.146;2023-04-29T13:13:08;101885.06;;;17.45;60.71
31538;BME280;18147;51.952;6.146;2023-04-29T13:15:36;101896.25;;;17.04;67.71
31538;BME280;18147;51.952;6.146;2023-04-29T13:18:04;101880.47;;;17.82;61.88
31538;BME280;18147;51.952;6.146;2023-04-29T13:20:30;101891.91;;;18.08;62.52
31538;BME280;18147;51.952;6.146;2023-04-29T13:22:59;101892.00;;;17.96;65.65
31538;BME280;18147;51.952;6.146;2023-04-29T13:25:25;101886.13;;;18.02;61.57
31538;BME280;18147;51.952;6.146;2023-04-29T13:27:50;101877.22;;;18.35;61.83